createdAt,value
2023-04-27T00:01:46.939Z,5.03
2023-04-27T00:04:14.725Z,5.28
2023-04-27T00:06:42.361Z,4.68
2023-04-27T00:09:09.814Z,5.68
2023-04-27T00:11:36.842Z,4.82
2023-04-27T00:14:04.179Z,5.30
2023-04-27T00:16:31.261Z,5.82
2023-04-27T00:18:58.933Z,5.38
2023-04-27T00:21:28.352Z,5.40
2023-04-27T00:23:56.543Z,6.18
2023-04-27T00:26:23.570Z,5.65
2023-04-27T00:28:50.857Z,6.20
2023-04-27T00:31:17.930Z,5.53
2023-04-27T00:33:45.208Z,5.95
2023-04-27T00:36:12.332Z,5.28
2023-04-27T00:38:39.713Z,5.82
2023-04-27T00:41:07.742Z,5.30
2023-04-27T00:43:46.153Z,6.03
2023-04-27T00:46:17.462Z,4.95
2023-04-27T00:48:45.054Z,6.05
2023-04-27T00:51:12.105Z,6.13
2023-04-27T00:53:39.887Z,5.15
2023-04-27T00:56:07.837Z,5.72
2023-04-27T00:58:35.676Z,5.18
2023-04-27T01:01:03.827Z,5.60
2023-04-27T01:03:31.570Z,5.72
2023-04-27T01:06:01.645Z,6.30
2023-04-27T01:08:29.716Z,6.13
2023-04-27T01:10:57.221Z,5.55
2023-04-27T01:13:24.543Z,5.13
2023-04-27T01:15:51.494Z,5.85
2023-04-27T01:18:19.479Z,5.82
2023-04-27T01:20:46.521Z,5.15
2023-04-27T01:23:17.651Z,5.13
2023-04-27T01:25:44.978Z,7.13
2023-04-27T01:28:12.665Z,10.73
2023-04-27T01:30:39.828Z,10.35
2023-04-27T01:33:07.505Z,11.60
2023-04-27T01:35:34.638Z,13.80
2023-04-27T01:38:02.731Z,12.02
2023-04-27T01:40:29.754Z,9.85
2023-04-27T01:42:57.425Z,8.07
2023-04-27T01:45:24.490Z,6.07
2023-04-27T01:47:53.095Z,6.75
2023-04-27T01:50:20.936Z,6.35
2023-04-27T01:52:48.253Z,5.68
2023-04-27T01:55:15.233Z,7.63
2023-04-27T01:57:43.132Z,6.03
2023-04-27T02:00:10.838Z,5.85
2023-04-27T02:02:38.223Z,6.07
2023-04-27T02:05:05.734Z,5.47
2023-04-27T02:07:33.324Z,7.07
2023-04-27T02:10:00.320Z,5.93
2023-04-27T02:12:27.541Z,4.88
2023-04-27T02:14:54.604Z,5.90
2023-04-27T02:17:21.853Z,5.60
2023-04-27T02:19:48.892Z,5.97
2023-04-27T02:22:16.519Z,6.45
2023-04-27T02:24:43.436Z,6.68
2023-04-27T02:27:10.946Z,5.50
2023-04-27T02:29:39.013Z,6.53
2023-04-27T02:32:06.981Z,5.63
2023-04-27T02:34:33.935Z,5.72
2023-04-27T02:37:01.270Z,6.03
2023-04-27T02:39:28.326Z,5.53
2023-04-27T02:41:55.642Z,6.45
2023-04-27T02:44:22.666Z,5.68
2023-04-27T02:46:50.710Z,5.80
2023-04-27T02:49:17.823Z,5.85
2023-04-27T02:51:45.410Z,5.35
2023-04-27T02:54:12.395Z,5.35
2023-04-27T02:56:39.702Z,5.28
2023-04-27T02:59:06.659Z,5.85
2023-04-27T03:01:33.975Z,5.85
2023-04-27T03:04:01.122Z,6.05
2023-04-27T03:06:28.966Z,6.20
2023-04-27T03:08:55.902Z,6.53
2023-04-27T03:11:23.779Z,6.32
2023-04-27T03:13:50.873Z,5.60
2023-04-27T03:16:20.695Z,6.75
2023-04-27T03:18:47.651Z,6.88
2023-04-27T03:21:17.015Z,6.40
2023-04-27T03:23:44.054Z,6.40
2023-04-27T03:26:13.337Z,6.32
2023-04-27T03:28:40.728Z,5.65
2023-04-27T03:31:09.469Z,5.93
2023-04-27T03:33:36.889Z,6.38
2023-04-27T03:36:05.491Z,6.10
2023-04-27T03:38:33.152Z,6.75
2023-04-27T03:41:01.024Z,6.05
2023-04-27T03:43:28.073Z,6.07
2023-04-27T03:45:55.501Z,7.40
2023-04-27T03:48:22.577Z,6.93
2023-04-27T03:50:50.049Z,5.43
2023-04-27T03:53:17.120Z,6.57
2023-04-27T03:55:45.270Z,6.43
2023-04-27T03:58:12.532Z,6.45
2023-04-27T04:00:40.154Z,7.05
2023-04-27T04:03:08.173Z,6.30
2023-04-27T04:05:36.083Z,6.25
2023-04-27T04:08:03.534Z,6.20
2023-04-27T04:10:30.778Z,5.93
2023-04-27T04:12:57.753Z,6.40
2023-04-27T04:15:25.081Z,6.88
2023-04-27T04:17:52.471Z,6.93
2023-04-27T04:20:20.145Z,5.65
2023-04-27T04:22:47.390Z,6.75
2023-04-27T04:25:14.848Z,6.32
2023-04-27T04:27:42.046Z,6.05
2023-04-27T04:30:09.650Z,9.73
2023-04-27T04:32:40.355Z,6.35
2023-04-27T04:35:08.493Z,7.18
2023-04-27T04:37:36.556Z,7.03
2023-04-27T04:40:09.337Z,7.05
2023-04-27T04:42:37.567Z,6.80
2023-04-27T04:45:05.555Z,6.90
2023-04-27T04:47:32.722Z,6.30
2023-04-27T04:50:01.074Z,6.40
2023-04-27T04:52:28.226Z,6.65
2023-04-27T04:54:55.661Z,6.05
2023-04-27T04:57:22.697Z,6.15
2023-04-27T04:59:50.240Z,6.68
2023-04-27T05:02:17.300Z,6.90
2023-04-27T05:04:44.961Z,6.65
2023-04-27T05:07:15.051Z,5.95
2023-04-27T05:09:42.881Z,6.13
2023-04-27T05:12:10.233Z,6.40
2023-04-27T05:14:37.697Z,6.68
2023-04-27T05:17:04.719Z,7.22
2023-04-27T05:19:32.070Z,6.07
2023-04-27T05:21:59.344Z,6.72
2023-04-27T05:24:26.985Z,6.10
2023-04-27T05:26:54.975Z,6.00
2023-04-27T05:29:22.695Z,6.35
2023-04-27T05:31:49.996Z,5.57
2023-04-27T05:34:18.747Z,5.88
2023-04-27T05:36:47.238Z,5.65
2023-04-27T05:39:15.293Z,5.75
2023-04-27T05:41:42.508Z,6.35
2023-04-27T05:44:09.870Z,6.88
2023-04-27T05:46:38.760Z,6.13
2023-04-27T05:49:06.428Z,6.13
2023-04-27T05:51:33.879Z,5.70
2023-04-27T05:54:02.084Z,6.53
2023-04-27T05:56:29.219Z,5.68
2023-04-27T05:58:56.713Z,5.55
2023-04-27T06:01:23.869Z,5.55
2023-04-27T06:03:51.517Z,6.18
2023-04-27T06:06:18.504Z,5.35
2023-04-27T06:08:46.274Z,5.07
2023-04-27T06:11:13.359Z,4.35
2023-04-27T06:13:40.743Z,4.38
2023-04-27T06:16:08.232Z,5.35
2023-04-27T06:18:35.899Z,4.43
2023-04-27T06:21:02.980Z,4.40
2023-04-27T06:23:30.238Z,3.47
2023-04-27T06:25:58.850Z,3.63
2023-04-27T06:28:26.757Z,3.47
2023-04-27T06:30:54.697Z,2.78
2023-04-27T06:33:22.037Z,2.83
2023-04-27T06:35:49.056Z,2.80
2023-04-27T06:38:16.691Z,2.92
2023-04-27T06:40:43.911Z,2.60
2023-04-27T06:43:11.616Z,3.05
2023-04-27T06:45:38.600Z,2.58
2023-04-27T06:48:06.064Z,2.35
2023-04-27T06:50:33.043Z,2.22
2023-04-27T06:53:00.284Z,1.92
2023-04-27T06:55:27.432Z,2.67
2023-04-27T06:57:54.671Z,2.15
2023-04-27T07:00:21.959Z,2.00
2023-04-27T07:02:49.650Z,1.77
2023-04-27T07:05:16.793Z,2.38
2023-04-27T07:07:44.334Z,2.28
2023-04-27T07:10:11.867Z,2.35
2023-04-27T07:12:40.295Z,2.47
2023-04-27T07:15:08.168Z,2.13
2023-04-27T07:17:35.978Z,1.85
2023-04-27T07:20:05.280Z,2.20
2023-04-27T07:22:33.364Z,1.70
2023-04-27T07:25:00.517Z,2.00
2023-04-27T07:27:28.117Z,1.45
2023-04-27T07:29:55.134Z,2.13
2023-04-27T07:32:22.781Z,1.50
2023-04-27T07:34:53.921Z,3.45
2023-04-27T07:37:22.712Z,1.60
2023-04-27T07:39:50.652Z,2.40
2023-04-27T07:42:18.657Z,1.65
2023-04-27T07:44:45.779Z,1.60
2023-04-27T07:47:13.609Z,1.48
2023-04-27T07:49:40.934Z,1.05
2023-04-27T07:52:08.488Z,1.25
2023-04-27T07:54:35.767Z,1.02
2023-04-27T07:57:09.429Z,1.33
2023-04-27T07:59:36.632Z,1.38
2023-04-27T08:02:18.490Z,1.08
2023-04-27T08:04:47.374Z,1.42
2023-04-27T08:07:17.328Z,1.35
2023-04-27T08:09:44.703Z,1.50
2023-04-27T08:12:11.985Z,1.35
2023-04-27T08:14:38.951Z,1.60
2023-04-27T08:17:06.267Z,1.30
2023-04-27T08:19:33.390Z,1.08
2023-04-27T08:22:01.191Z,1.75
2023-04-27T08:24:28.211Z,0.80
2023-04-27T08:26:55.666Z,0.98
2023-04-27T08:29:27.645Z,0.80
2023-04-27T08:31:58.637Z,1.00
2023-04-27T08:34:25.866Z,0.63
2023-04-27T08:36:56.264Z,0.90
2023-04-27T08:39:24.476Z,0.70
2023-04-27T08:41:51.780Z,0.85
2023-04-27T08:44:18.898Z,1.50
2023-04-27T08:46:46.457Z,0.75
2023-04-27T08:49:15.989Z,0.95
2023-04-27T08:51:44.607Z,0.90
2023-04-27T08:54:11.615Z,0.93
2023-04-27T08:56:39.498Z,1.13
2023-04-27T08:59:15.376Z,0.70
2023-04-27T09:01:48.982Z,0.55
2023-04-27T09:04:17.916Z,0.55
2023-04-27T09:06:46.314Z,0.70
2023-04-27T09:09:23.581Z,0.57
2023-04-27T09:11:51.514Z,0.47
2023-04-27T09:14:21.197Z,0.57
2023-04-27T09:16:59.637Z,0.30
2023-04-27T09:19:27.824Z,0.73
2023-04-27T09:22:11.697Z,0.70
2023-04-27T09:24:38.880Z,0.70
2023-04-27T09:27:08.669Z,0.47
2023-04-27T09:29:37.531Z,0.70
2023-04-27T09:32:18.790Z,0.52
2023-04-27T09:34:46.137Z,0.77
2023-04-27T09:37:14.882Z,0.50
2023-04-27T09:39:42.625Z,1.75
2023-04-27T09:42:11.337Z,1.00
2023-04-27T09:44:38.268Z,0.73
2023-04-27T09:47:07.098Z,0.82
2023-04-27T09:49:35.171Z,1.20
2023-04-27T09:52:02.572Z,1.92
2023-04-27T09:54:32.391Z,1.23
2023-04-27T09:57:17.410Z,0.80
2023-04-27T09:59:53.672Z,0.85
2023-04-27T10:02:24.771Z,0.70
2023-04-27T10:05:31.518Z,0.90
2023-04-27T10:07:59.035Z,0.70
2023-04-27T10:10:27.491Z,0.82
2023-04-27T10:13:01.243Z,0.85
2023-04-27T10:15:29.941Z,1.38
2023-04-27T10:18:04.693Z,0.73
2023-04-27T10:20:37.483Z,1.17
2023-04-27T10:23:05.056Z,0.80
2023-04-27T10:25:40.721Z,1.55
2023-04-27T10:28:09.083Z,1.30
2023-04-27T10:30:43.719Z,0.80
2023-04-27T10:33:13.020Z,0.95
2023-04-27T10:35:54.624Z,0.90
2023-04-27T10:38:27.479Z,1.13
2023-04-27T10:40:57.746Z,1.10
2023-04-27T10:43:27.249Z,1.40
2023-04-27T10:45:54.890Z,0.93
2023-04-27T10:48:22.592Z,1.55
2023-04-27T10:50:51.761Z,1.42
2023-04-27T10:53:19.056Z,1.10
2023-04-27T10:55:46.962Z,1.00
2023-04-27T10:58:14.267Z,0.85
2023-04-27T11:00:44.375Z,1.27
2023-04-27T11:03:18.570Z,1.33
2023-04-27T11:05:47.287Z,1.35
2023-04-27T11:08:16.943Z,1.27
2023-04-27T11:10:50.152Z,1.17
2023-04-27T11:13:20.815Z,0.93
2023-04-27T11:16:06.961Z,1.08
2023-04-27T11:18:37.600Z,1.70
2023-04-27T11:21:10.267Z,1.40
2023-04-27T11:23:38.638Z,1.35
2023-04-27T11:26:22.550Z,1.50
2023-04-27T11:29:05.509Z,1.63
2023-04-27T11:31:50.806Z,1.95
2023-04-27T11:34:26.466Z,1.92
2023-04-27T11:37:17.970Z,1.80
2023-04-27T11:39:46.446Z,1.70
2023-04-27T11:42:23.883Z,1.35
2023-04-27T11:45:12.203Z,1.77
2023-04-27T11:47:41.095Z,1.42
2023-04-27T11:50:09.355Z,1.77
2023-04-27T11:52:37.961Z,1.08
2023-04-27T11:55:06.022Z,1.50
2023-04-27T11:57:34.228Z,1.23
2023-04-27T12:00:10.811Z,1.75
2023-04-27T12:02:38.590Z,1.60
2023-04-27T12:05:07.684Z,1.00
2023-04-27T12:07:35.074Z,1.23
2023-04-27T12:10:02.596Z,1.48
2023-04-27T12:12:29.578Z,7.80
2023-04-27T12:14:57.984Z,3.10
2023-04-27T12:17:24.978Z,1.90
2023-04-27T12:19:52.671Z,1.92
2023-04-27T12:22:20.667Z,1.55
2023-04-27T12:24:48.601Z,1.58
2023-04-27T12:27:16.036Z,1.30
2023-04-27T12:29:43.304Z,1.33
2023-04-27T12:32:10.302Z,1.65
2023-04-27T12:34:39.333Z,1.50
2023-04-27T12:37:06.753Z,2.63
2023-04-27T12:39:34.386Z,1.40
2023-04-27T12:42:02.360Z,1.10
2023-04-27T12:44:30.055Z,1.58
2023-04-27T12:46:57.031Z,1.27
2023-04-27T12:49:24.300Z,1.55
2023-04-27T12:51:52.844Z,1.40
2023-04-27T12:54:20.206Z,1.65
2023-04-27T12:56:47.227Z,1.65
2023-04-27T12:59:14.553Z,2.35
2023-04-27T13:01:41.591Z,1.40
2023-04-27T13:04:09.513Z,1.38
2023-04-27T13:06:36.744Z,1.10
2023-04-27T13:09:04.133Z,0.90
2023-04-27T13:11:31.244Z,1.30
2023-04-27T13:13:59.266Z,1.13
2023-04-27T13:16:26.586Z,1.15
2023-04-27T13:18:55.593Z,1.60
2023-04-27T13:21:23.257Z,1.10
2023-04-27T13:23:51.272Z,0.88
2023-04-27T13:26:18.669Z,1.20
2023-04-27T13:28:46.211Z,0.90
2023-04-27T13:31:13.335Z,1.27
2023-04-27T13:33:42.883Z,1.30
2023-04-27T13:36:10.764Z,0.95
2023-04-27T13:38:38.249Z,1.00
2023-04-27T13:41:06.288Z,0.90
2023-04-27T13:43:33.636Z,1.33
2023-04-27T13:46:01.837Z,0.85
2023-04-27T13:48:30.946Z,1.83
2023-04-27T13:50:58.325Z,0.98
2023-04-27T13:53:26.532Z,1.00
2023-04-27T13:55:58.074Z,1.38
2023-04-27T13:58:27.062Z,1.40
2023-04-27T14:00:54.666Z,0.75
2023-04-27T14:03:22.681Z,1.20
2023-04-27T14:05:51.528Z,0.90
2023-04-27T14:08:19.199Z,0.90
2023-04-27T14:10:46.275Z,0.90
2023-04-27T14:13:13.853Z,1.00
2023-04-27T14:15:41.944Z,0.75
2023-04-27T14:18:09.887Z,1.73
2023-04-27T14:20:38.690Z,1.00
2023-04-27T14:23:06.442Z,0.80
2023-04-27T14:25:34.690Z,0.95
2023-04-27T14:28:04.492Z,0.85
2023-04-27T14:30:35.072Z,0.70
2023-04-27T14:33:02.904Z,0.50
2023-04-27T14:35:30.432Z,1.08
2023-04-27T14:38:02.179Z,0.90
2023-04-27T14:40:30.596Z,0.75
2023-04-27T14:42:58.563Z,1.15
2023-04-27T14:45:30.889Z,0.90
2023-04-27T14:48:04.359Z,1.17
2023-04-27T14:50:31.797Z,0.75
2023-04-27T14:52:59.002Z,1.10
2023-04-27T14:55:26.020Z,0.80
2023-04-27T14:57:53.312Z,0.77
2023-04-27T15:00:20.396Z,1.00
2023-04-27T15:02:47.742Z,1.10
2023-04-27T15:05:14.833Z,0.77
2023-04-27T15:07:42.060Z,1.20
2023-04-27T15:10:09.513Z,0.82
2023-04-27T15:12:36.997Z,1.10
2023-04-27T15:15:04.978Z,0.73
2023-04-27T15:17:32.230Z,1.52
2023-04-27T15:19:59.205Z,1.25
2023-04-27T15:22:28.573Z,0.80
2023-04-27T15:24:55.553Z,0.95
2023-04-27T15:27:22.891Z,0.85
2023-04-27T15:29:49.869Z,0.93
2023-04-27T15:32:17.157Z,1.15
2023-04-27T15:34:45.493Z,0.80
2023-04-27T15:37:13.124Z,3.90
2023-04-27T15:39:40.172Z,4.40
2023-04-27T15:42:07.398Z,1.17
2023-04-27T15:44:34.373Z,1.00
2023-04-27T15:47:02.197Z,1.17
2023-04-27T15:49:30.051Z,1.63
2023-04-27T15:51:57.700Z,1.40
2023-04-27T15:54:24.650Z,1.40
2023-04-27T15:56:51.942Z,1.10
2023-04-27T15:59:18.958Z,1.00
2023-04-27T16:01:46.455Z,1.95
2023-04-27T16:04:13.611Z,1.50
2023-04-27T16:06:41.170Z,1.30
2023-04-27T16:09:10.575Z,2.83
2023-04-27T16:11:38.651Z,0.60
2023-04-27T16:14:05.797Z,1.00
2023-04-27T16:16:33.040Z,2.30
2023-04-27T16:19:00.630Z,1.52
2023-04-27T16:21:28.156Z,2.30
2023-04-27T16:23:55.100Z,2.08
2023-04-27T16:26:22.678Z,2.17
2023-04-27T16:28:49.627Z,1.67
2023-04-27T16:31:17.144Z,1.23
2023-04-27T16:33:44.378Z,1.70
2023-04-27T16:36:11.724Z,3.47
2023-04-27T16:38:39.511Z,2.33
2023-04-27T16:41:06.856Z,1.40
2023-04-27T16:43:34.010Z,1.05
2023-04-27T16:46:01.429Z,1.20
2023-04-27T16:48:28.456Z,1.55
2023-04-27T16:50:56.219Z,1.50
2023-04-27T16:53:23.691Z,1.17
2023-04-27T16:55:51.244Z,1.02
2023-04-27T16:58:18.441Z,1.38
2023-04-27T17:00:46.512Z,1.10
2023-04-27T17:03:13.567Z,0.90
2023-04-27T17:05:41.142Z,1.02
2023-04-27T17:08:08.510Z,0.85
2023-04-27T17:10:36.786Z,1.15
2023-04-27T17:13:05.081Z,1.40
2023-04-27T17:15:32.544Z,1.00
2023-04-27T17:18:04.592Z,1.52
2023-04-27T17:20:32.383Z,1.35
2023-04-27T17:22:59.437Z,1.58
2023-04-27T17:25:26.836Z,2.15
2023-04-27T17:27:53.830Z,3.38
2023-04-27T17:30:21.323Z,5.65
2023-04-27T17:32:48.287Z,4.32
2023-04-27T17:35:15.924Z,4.40
2023-04-27T17:37:42.913Z,4.05
2023-04-27T17:40:11.038Z,4.50
2023-04-27T17:42:38.030Z,4.78
2023-04-27T17:45:06.394Z,2.88
2023-04-27T17:47:33.842Z,2.42
2023-04-27T17:50:01.186Z,2.50
2023-04-27T17:52:28.316Z,2.20
2023-04-27T17:54:55.946Z,2.30
2023-04-27T17:57:23.086Z,4.35
2023-04-27T17:59:50.919Z,4.05
2023-04-27T18:02:18.021Z,4.05
2023-04-27T18:04:45.583Z,7.07
2023-04-27T18:07:12.686Z,7.28
2023-04-27T18:09:39.895Z,4.85
2023-04-27T18:12:11.004Z,4.18
2023-04-27T18:14:39.009Z,4.22
2023-04-27T18:17:06.259Z,4.65
2023-04-27T18:19:34.014Z,5.43
2023-04-27T18:22:01.072Z,4.55
2023-04-27T18:24:28.360Z,3.55
2023-04-27T18:26:55.365Z,2.90
2023-04-27T18:29:22.635Z,3.03
2023-04-27T18:31:49.723Z,3.53
2023-04-27T18:34:17.138Z,4.05
2023-04-27T18:36:48.457Z,3.63
2023-04-27T18:39:17.692Z,3.28
2023-04-27T18:41:44.610Z,3.50
2023-04-27T18:44:12.168Z,4.05
2023-04-27T18:46:39.234Z,3.90
2023-04-27T18:49:06.463Z,3.75
2023-04-27T18:51:33.529Z,4.57
2023-04-27T18:54:01.328Z,4.43
2023-04-27T18:56:28.307Z,3.70
2023-04-27T18:58:56.028Z,4.35
2023-04-27T19:01:27.949Z,4.78
2023-04-27T19:03:56.019Z,15.45
2023-04-27T19:06:23.266Z,13.55
2023-04-27T19:08:50.564Z,12.80
2023-04-27T19:11:22.061Z,11.25
2023-04-27T19:13:50.610Z,13.80
2023-04-27T19:16:18.086Z,10.38
2023-04-27T19:18:45.466Z,12.02
2023-04-27T19:21:12.877Z,11.65
2023-04-27T19:23:40.547Z,8.80
2023-04-27T19:26:13.232Z,8.50
2023-04-27T19:31:07.753Z,10.27
2023-04-27T19:33:35.055Z,13.23
2023-04-27T19:36:02.126Z,11.40
2023-04-27T19:38:30.197Z,10.85
2023-04-27T19:40:57.170Z,21.02
2023-04-27T19:43:24.560Z,24.83
2023-04-27T19:45:51.644Z,17.77
2023-04-27T19:48:19.179Z,12.48
2023-04-27T19:50:46.160Z,9.55
2023-04-27T19:53:13.424Z,9.25
2023-04-27T19:55:40.732Z,7.78
2023-04-27T19:58:08.075Z,7.60
2023-04-27T20:00:35.333Z,8.25
2023-04-27T20:03:03.653Z,5.85
2023-04-27T20:05:31.518Z,6.50
2023-04-27T20:07:59.356Z,6.40
2023-04-27T20:10:26.343Z,5.50
2023-04-27T20:12:57.043Z,5.85
2023-04-27T20:15:24.967Z,6.60
2023-04-27T20:17:53.282Z,6.13
2023-04-27T20:20:21.137Z,5.57
2023-04-27T20:22:49.370Z,5.30
2023-04-27T20:25:16.322Z,5.13
2023-04-27T20:27:43.629Z,6.10
2023-04-27T20:30:10.934Z,5.60
2023-04-27T20:32:41.373Z,5.90
2023-04-27T20:35:11.765Z,6.38
2023-04-27T20:37:41.905Z,6.78
2023-04-27T20:40:14.244Z,6.25
2023-04-27T20:45:11.548Z,6.97
2023-04-27T20:47:38.939Z,7.82
2023-04-27T20:50:06.710Z,7.88
2023-04-27T20:52:34.685Z,7.93
2023-04-27T20:55:03.472Z,9.43
2023-04-27T20:57:31.065Z,8.60
2023-04-27T20:59:58.201Z,9.90
2023-04-27T21:02:25.561Z,7.85
2023-04-27T21:04:53.058Z,9.88
2023-04-27T21:07:20.971Z,8.43
2023-04-27T21:09:47.939Z,7.38
2023-04-27T21:12:17.265Z,8.80
2023-04-27T21:14:44.625Z,8.57
2023-04-27T21:17:15.170Z,10.15
2023-04-27T21:19:42.352Z,9.93
2023-04-27T21:22:09.719Z,10.10
2023-04-27T21:24:36.691Z,10.50
2023-04-27T21:27:04.041Z,11.13
2023-04-27T21:29:31.065Z,9.98
2023-04-27T21:31:58.621Z,11.13
2023-04-27T21:34:25.532Z,11.15
2023-04-27T21:36:52.813Z,11.65
2023-04-27T21:39:19.800Z,9.93
2023-04-27T21:41:47.152Z,10.68
2023-04-27T21:44:14.449Z,8.95
2023-04-27T21:46:41.995Z,8.98
2023-04-27T21:49:09.057Z,9.52
2023-04-27T21:51:36.669Z,9.13
2023-04-27T21:54:03.739Z,9.07
2023-04-27T21:56:31.169Z,8.93
2023-04-27T21:58:58.123Z,8.73
2023-04-27T22:01:27.222Z,8.40
2023-04-27T22:03:54.482Z,8.05
2023-04-27T22:06:21.893Z,9.13
2023-04-27T22:08:48.927Z,7.38
2023-04-27T22:11:16.730Z,7.85
2023-04-27T22:13:43.679Z,9.02
2023-04-27T22:16:13.151Z,8.05
2023-04-27T22:18:40.789Z,8.38
2023-04-27T22:21:08.409Z,7.45
2023-04-27T22:23:35.627Z,8.20
2023-04-27T22:26:04.076Z,8.57
2023-04-27T22:28:31.047Z,8.80
2023-04-27T22:30:58.876Z,9.65
2023-04-27T22:33:25.920Z,8.20
2023-04-27T22:35:53.250Z,8.98
2023-04-27T22:38:20.369Z,7.65
2023-04-27T22:40:47.689Z,8.88
2023-04-27T22:43:14.589Z,7.90
2023-04-27T22:45:41.908Z,9.02
2023-04-27T22:48:08.915Z,7.75
2023-04-27T22:50:36.217Z,8.45
2023-04-27T22:53:03.747Z,8.07
2023-04-27T22:55:31.023Z,8.88
2023-04-27T22:57:58.017Z,7.60
2023-04-27T23:00:25.293Z,7.68
2023-04-27T23:02:52.591Z,6.60
2023-04-27T23:05:20.081Z,7.40
2023-04-27T23:07:47.094Z,8.73
2023-04-27T23:10:15.160Z,7.05
2023-04-27T23:12:42.281Z,8.77
2023-04-27T23:15:10.291Z,6.90
2023-04-27T23:17:37.250Z,7.28
2023-04-27T23:20:24.024Z,7.18
2023-04-27T23:22:54.903Z,7.75
2023-04-27T23:25:23.994Z,7.57
2023-04-27T23:27:52.555Z,7.15
2023-04-27T23:30:21.425Z,8.20
2023-04-27T23:32:48.426Z,6.95
2023-04-27T23:35:15.760Z,7.30
2023-04-27T23:37:42.960Z,7.55
2023-04-27T23:40:10.552Z,7.53
2023-04-27T23:42:37.656Z,8.00
2023-04-27T23:45:05.241Z,7.95
2023-04-27T23:47:33.924Z,7.72
2023-04-27T23:50:02.369Z,8.40
2023-04-27T23:52:29.427Z,6.97
2023-04-27T23:54:58.100Z,7.20
2023-04-27T23:57:25.147Z,7.53
2023-04-27T23:59:52.424Z,7.65
